Time;durP1;ratioP1;P1;durP2;ratioP2;P2;SDS_P1;SDS_P2;PMS_P1;PMS_P2;Temp;Humidity;BMP_temperature;BMP_pressure;BME280_temperature;BME280_humidity;BME280_pressure;Samples;Min_cycle;Max_cycle;Signal;HPM_P1;HPM_P2
2020/12/10 00:00:11;;;;;;;0.45;0.45;;;4.60;99.90;;;;;;5030699;28;20163;-85
2020/12/10 00:02:37;;;;;;;0.10;0.10;;;4.60;99.90;;;;;;5030712;28;20495;-84
2020/12/10 00:05:09;;;;;;;1.13;1.02;;;4.60;99.90;;;;;;5050137;28;20033;-84
2020/12/10 00:07:36;;;;;;;0.52;0.52;;;4.60;99.90;;;;;;5031507;28;20029;-85
2020/12/10 00:10:05;;;;;;;0.25;0.25;;;4.60;99.90;;;;;;5034591;28;20031;-85
2020/12/10 00:12:31;;;;;;;0.20;0.20;;;4.50;99.90;;;;;;5052297;28;20100;-85
2020/12/10 00:14:57;;;;;;;0.60;0.60;;;4.50;99.90;;;;;;5031951;28;20525;-85
2020/12/10 00:17:27;;;;;;;2.83;1.17;;;4.40;99.90;;;;;;5012475;28;20053;-85
2020/12/10 00:19:54;;;;;;;0.15;0.15;;;4.50;99.90;;;;;;5028512;28;20399;-85
2020/12/10 00:22:20;;;;;;;0.88;0.88;;;4.40;99.90;;;;;;5018939;28;20407;-85
2020/12/10 00:24:47;;;;;;;0.43;0.40;;;4.40;99.90;;;;;;5028723;28;20034;-85
2020/12/10 00:27:17;;;;;;;0.10;0.10;;;4.30;99.90;;;;;;5033763;28;20152;-85
2020/12/10 00:29:46;;;;;;;0.20;0.20;;;4.30;99.90;;;;;;5017536;28;20219;-85
2020/12/10 00:32:18;;;;;;;0.45;0.45;;;4.20;99.90;;;;;;5028424;28;20048;-86
2020/12/10 00:34:46;;;;;;;0.95;0.88;;;4.20;99.90;;;;;;5028993;28;20558;-86
2020/12/10 00:37:13;;;;;;;0.43;0.40;;;4.20;99.90;;;;;;5009432;28;20495;-86
2020/12/10 00:39:39;;;;;;;0.38;0.38;;;4.20;99.90;;;;;;5028699;28;20029;-86
2020/12/10 00:42:05;;;;;;;0.30;0.30;;;4.20;99.90;;;;;;5028503;28;20434;-85
2020/12/10 00:44:31;;;;;;;0.30;0.30;;;4.20;99.90;;;;;;5028593;28;20029;-86
2020/12/10 00:46:57;;;;;;;1.05;1.05;;;4.30;99.90;;;;;;5009943;28;20495;-85
2020/12/10 00:49:24;;;;;;;0.10;0.10;;;4.30;99.90;;;;;;5027905;28;20024;-86
2020/12/10 00:51:50;;;;;;;0.10;0.10;;;4.30;99.90;;;;;;5014638;28;20029;-86
2020/12/10 00:54:17;;;;;;;0.38;0.38;;;4.30;99.90;;;;;;5010950;28;20519;-85
2020/12/10 00:56:43;;;;;;;0.60;0.60;;;4.30;99.90;;;;;;5027823;28;20065;-85
2020/12/10 00:59:09;;;;;;;0.10;0.10;;;4.30;99.90;;;;;;5010813;28;20040;-85
2020/12/10 01:01:36;;;;;;;0.20;0.20;;;4.30;99.90;;;;;;5028194;28;20125;-85
2020/12/10 01:04:02;;;;;;;0.00;0.00;;;4.30;99.90;;;;;;5028368;28;20025;-85
2020/12/10 01:06:28;;;;;;;1.00;1.00;;;4.30;99.90;;;;;;5023611;28;20076;-85
2020/12/10 01:08:54;;;;;;;0.10;0.10;;;4.30;99.90;;;;;;5027769;28;20112;-85
2020/12/10 01:11:27;;;;;;;2.58;2.38;;;4.30;99.90;;;;;;5009227;28;20456;-85
2020/12/10 01:13:54;;;;;;;0.43;0.43;;;4.30;99.90;;;;;;5009937;28;20057;-86
2020/12/10 01:16:19;;;;;;;0.10;0.10;;;4.40;99.90;;;;;;5013886;28;20045;-85
2020/12/10 01:18:45;;;;;;;0.77;0.77;;;4.30;99.90;;;;;;5036946;28;20029;-85
2020/12/10 01:21:11;;;;;;;0.13;0.13;;;4.40;99.90;;;;;;5027234;28;20029;-86
2020/12/10 01:23:37;;;;;;;0.50;0.50;;;4.40;99.90;;;;;;5012076;28;20444;-86
2020/12/10 01:26:02;;;;;;;0.10;0.10;;;4.40;99.90;;;;;;5033241;28;20041;-86
2020/12/10 01:28:28;;;;;;;0.10;0.10;;;4.40;99.90;;;;;;5027948;28;20024;-86
2020/12/10 01:30:54;;;;;;;0.15;0.15;;;4.40;99.90;;;;;;5011407;28;20025;-86
2020/12/10 01:33:20;;;;;;;0.20;0.20;;;4.40;99.90;;;;;;5018823;28;20052;-86
2020/12/10 01:35:46;;;;;;;0.20;0.20;;;4.40;99.90;;;;;;5046085;28;20067;-85
2020/12/10 01:38:12;;;;;;;0.70;0.68;;;4.40;99.90;;;;;;5031109;28;20041;-86
2020/12/10 01:40:38;;;;;;;0.10;0.10;;;4.40;99.90;;;;;;5042535;28;20034;-86
2020/12/10 01:43:03;;;;;;;0.55;0.55;;;4.50;99.90;;;;;;5027079;28;20303;-86
2020/12/10 01:45:29;;;;;;;0.10;0.10;;;4.40;99.90;;;;;;5028318;28;20033;-86
2020/12/10 01:47:55;;;;;;;0.25;0.25;;;4.50;99.90;;;;;;5013332;28;20494;-86
2020/12/10 01:50:21;;;;;;;0.10;0.10;;;4.40;99.90;;;;;;5034420;28;21033;-86
2020/12/10 01:52:50;;;;;;;0.10;0.10;;;4.50;99.90;;;;;;4999795;28;20026;-84
2020/12/10 01:55:16;;;;;;;0.70;0.70;;;4.50;99.90;;;;;;5028186;28;20021;-85
2020/12/10 01:57:42;;;;;;;0.17;0.17;;;4.50;99.90;;;;;;5028186;28;20088;-85
2020/12/10 02:00:08;;;;;;;0.10;0.10;;;4.50;99.90;;;;;;5027768;28;20057;-85
2020/12/10 02:02:34;;;;;;;0.17;0.17;;;4.50;99.90;;;;;;5028596;28;20033;-85
2020/12/10 02:04:59;;;;;;;0.52;0.52;;;4.50;99.90;;;;;;5030420;28;20079;-85
2020/12/10 02:07:25;;;;;;;0.10;0.10;;;4.50;99.90;;;;;;5033755;28;20026;-85
2020/12/10 02:09:51;;;;;;;0.10;0.10;;;4.50;99.90;;;;;;5044941;28;20795;-85
2020/12/10 02:12:16;;;;;;;0.10;0.10;;;4.50;99.90;;;;;;5018200;28;20441;-85
2020/12/10 02:14:42;;;;;;;0.32;0.32;;;4.50;99.90;;;;;;5035662;28;20503;-85
2020/12/10 02:17:08;;;;;;;0.10;0.10;;;4.50;99.90;;;;;;5043566;28;20716;-85
2020/12/10 02:19:34;;;;;;;0.13;0.13;;;4.50;99.90;;;;;;5046407;28;20520;-85
2020/12/10 02:22:00;;;;;;;0.10;0.10;;;4.50;99.90;;;;;;5036902;28;20116;-85
2020/12/10 02:24:26;;;;;;;0.47;0.47;;;4.50;99.90;;;;;;5051059;28;20033;-85
2020/12/10 02:26:52;;;;;;;2.15;1.08;;;4.50;99.90;;;;;;5049614;28;20044;-85
2020/12/10 02:29:19;;;;;;;0.20;0.20;;;4.50;99.90;;;;;;5045585;28;20387;-85
2020/12/10 02:31:46;;;;;;;0.47;0.47;;;4.60;99.90;;;;;;5063672;28;20028;-85
2020/12/10 02:34:12;;;;;;;0.10;0.10;;;4.60;99.90;;;;;;5033937;28;20021;-85
2020/12/10 02:36:39;;;;;;;0.38;0.38;;;4.60;99.90;;;;;;5050578;28;20040;-85
2020/12/10 02:39:07;;;;;;;0.30;0.30;;;4.60;99.90;;;;;;5029454;28;20501;-84
2020/12/10 02:41:34;;;;;;;0.10;0.10;;;4.60;99.90;;;;;;5049621;28;20029;-85
2020/12/10 02:44:00;;;;;;;0.30;0.30;;;4.60;99.90;;;;;;5031040;28;20029;-85
2020/12/10 02:46:25;;;;;;;0.10;0.10;;;4.60;99.90;;;;;;5063300;28;20037;-85
2020/12/10 02:48:51;;;;;;;0.30;0.30;;;4.60;99.90;;;;;;5031419;28;20030;-85
2020/12/10 02:51:17;;;;;;;0.28;0.28;;;4.70;99.90;;;;;;5042364;28;20021;-85
2020/12/10 02:53:43;;;;;;;0.43;0.43;;;4.60;99.90;;;;;;5016517;28;20037;-85
2020/12/10 02:56:13;;;;;;;2.17;1.17;;;4.60;1.00;;;;;;5038046;28;20021;-85
2020/12/10 02:58:40;;;;;;;0.30;0.30;;;4.60;1.00;;;;;;5057637;28;20027;-85
2020/12/10 03:01:07;;;;;;;0.20;0.20;;;4.60;1.00;;;;;;5055697;28;20482;-85
2020/12/10 03:03:33;;;;;;;;;;;4.50;99.90;;;;;;5070888;28;20699;-85
2020/12/10 03:05:59;;;;;;;0.60;0.60;;;4.50;1.00;;;;;;5031654;28;19905;-85
2020/12/10 03:08:25;;;;;;;0.10;0.10;;;4.30;1.00;;;;;;5031458;28;20041;-84
2020/12/10 03:10:52;;;;;;;0.15;0.15;;;4.30;3.80;;;;;;5027128;28;20018;-85
2020/12/10 03:13:19;;;;;;;0.10;0.10;;;4.20;48.80;;;;;;5045051;28;20124;-85
2020/12/10 03:15:45;;;;;;;0.10;0.10;;;4.20;1.00;;;;;;5057634;28;20041;-85
2020/12/10 03:18:11;;;;;;;0.10;0.10;;;4.20;99.90;;;;;;5045760;28;20038;-86
2020/12/10 03:20:37;;;;;;;0.20;0.20;;;4.20;99.90;;;;;;5027364;28;20762;-85
2020/12/10 03:23:03;;;;;;;0.10;0.10;;;4.20;99.90;;;;;;5040009;28;20033;-85
2020/12/10 03:25:29;;;;;;;1.45;0.68;;;4.30;99.90;;;;;;5031536;28;20021;-85
2020/12/10 03:27:55;;;;;;;0.35;0.35;;;4.20;99.90;;;;;;5045974;28;21535;-85
2020/12/10 03:30:22;;;;;;;0.30;0.30;;;4.20;99.90;;;;;;5047675;28;20080;-85
2020/12/10 03:32:48;;;;;;;0.10;0.10;;;4.20;99.90;;;;;;5044866;28;20021;-85
2020/12/10 03:35:15;;;;;;;0.08;0.08;;;4.10;99.90;;;;;;5060270;28;20509;-84
2020/12/10 03:37:41;;;;;;;0.57;0.57;;;4.20;99.90;;;;;;5026470;28;20040;-84
2020/12/10 03:40:07;;;;;;;0.20;0.20;;;4.20;99.90;;;;;;5045179;28;20028;-84
2020/12/10 03:42:33;;;;;;;0.25;0.25;;;4.20;99.90;;;;;;5038546;28;20037;-85
2020/12/10 03:44:59;;;;;;;0.10;0.10;;;4.20;99.90;;;;;;5047144;28;20036;-85
2020/12/10 03:47:25;;;;;;;0.10;0.10;;;4.20;99.90;;;;;;5041339;28;20025;-84
2020/12/10 03:49:51;;;;;;;1.80;0.55;;;4.20;99.90;;;;;;5049396;28;20263;-85
2020/12/10 03:52:17;;;;;;;0.47;0.38;;;4.30;99.90;;;;;;5047544;28;20035;-84
2020/12/10 03:54:43;;;;;;;0.10;0.10;;;4.20;99.90;;;;;;5031434;28;20055;-85
2020/12/10 03:57:10;;;;;;;0.10;0.10;;;4.50;99.90;;;;;;5040731;28;20733;-85
2020/12/10 03:59:35;;;;;;;0.63;0.63;;;4.90;99.90;;;;;;5026741;28;20401;-84
2020/12/10 04:02:01;;;;;;;0.20;0.20;;;5.30;99.90;;;;;;5048905;28;20036;-84
2020/12/10 04:04:28;;;;;;;0.10;0.10;;;6.30;99.90;;;;;;5055671;28;20040;-84
2020/12/10 04:06:54;;;;;;;0.10;0.10;;;6.30;99.90;;;;;;5026949;28;20026;-84
2020/12/10 04:09:20;;;;;;;0.10;0.10;;;6.30;99.90;;;;;;5030113;28;20166;-85
2020/12/10 04:11:46;;;;;;;0.10;0.10;;;6.40;99.90;;;;;;5053801;28;20033;-84
2020/12/10 04:14:11;;;;;;;6.82;1.42;;;6.40;99.90;;;;;;5048104;28;20021;-84
2020/12/10 04:16:37;;;;;;;1.08;0.32;;;6.40;99.90;;;;;;5021099;28;20048;-85
2020/12/10 04:19:04;;;;;;;0.10;0.10;;;6.50;99.90;;;;;;5026396;28;20033;-85
2020/12/10 04:21:29;;;;;;;0.90;0.63;;;6.60;99.90;;;;;;5042817;28;20150;-85
2020/12/10 04:23:55;;;;;;;0.20;0.20;;;6.60;99.90;;;;;;5045689;28;20124;-84
2020/12/10 04:26:21;;;;;;;0.10;0.10;;;6.50;99.90;;;;;;5020094;28;20510;-84
2020/12/10 04:28:48;;;;;;;;;;;6.50;99.90;;;;;;5028248;28;20044;-84
2020/12/10 04:31:16;;;;;;;0.10;0.10;;;6.50;99.90;;;;;;5046182;28;19950;-84
2020/12/10 04:33:42;;;;;;;0.55;0.55;;;6.20;99.90;;;;;;5029821;28;20489;-85
2020/12/10 04:36:08;;;;;;;0.10;0.10;;;6.00;99.90;;;;;;5028175;28;20021;-85
2020/12/10 04:38:34;;;;;;;0.10;0.10;;;6.00;99.90;;;;;;5016410;28;20021;-85
2020/12/10 04:41:02;;;;;;;0.10;0.10;;;6.10;99.90;;;;;;5026212;28;20037;-84
2020/12/10 04:43:28;;;;;;;0.43;0.43;;;6.00;99.90;;;;;;5051920;28;20512;-85
2020/12/10 04:45:58;;;;;;;0.10;0.10;;;5.90;99.90;;;;;;5033680;28;20021;-85
2020/12/10 04:48:32;;;;;;;0.20;0.20;;;5.70;99.90;;;;;;5024762;28;20032;-86
2020/12/10 04:51:01;;;;;;;0.38;0.38;;;5.70;99.90;;;;;;5040398;28;20028;-84
2020/12/10 04:53:27;;;;;;;0.20;0.20;;;5.70;1.00;;;;;;5047358;28;20017;-84
2020/12/10 04:56:02;;;;;;;0.20;0.20;;;5.50;99.90;;;;;;5052751;28;20020;-84
2020/12/10 04:58:28;;;;;;;0.20;0.20;;;5.40;1.00;;;;;;5024290;28;20024;-84
2020/12/10 05:00:59;;;;;;;0.10;0.10;;;5.30;1.00;;;;;;5049248;28;20551;-85
2020/12/10 05:03:25;;;;;;;0.30;0.30;;;5.30;1.00;;;;;;5015475;28;20562;-84
2020/12/10 05:05:51;;;;;;;0.15;0.15;;;5.30;1.00;;;;;;5040147;28;20044;-85
2020/12/10 05:08:45;;;;;;;0.10;0.10;;;5.30;99.90;;;;;;5038117;28;20039;-85
2020/12/10 05:11:11;;;;;;;0.15;0.15;;;5.20;99.90;;;;;;5018172;28;20039;-85
2020/12/10 05:13:37;;;;;;;0.10;0.10;;;5.10;75.80;;;;;;5038302;28;20017;-86
2020/12/10 05:16:19;;;;;;;0.10;0.10;;;5.00;99.90;;;;;;5046824;28;20056;-85
2020/12/10 05:18:44;;;;;;;0.10;0.10;;;5.00;99.90;;;;;;5003229;28;20026;-85
2020/12/10 05:21:14;;;;;;;0.82;0.82;;;5.00;99.90;;;;;;5044635;28;20028;-85
2020/12/10 05:23:41;;;;;;;0.35;0.35;;;5.00;99.90;;;;;;5038983;28;20026;-85
2020/12/10 05:26:08;;;;;;;0.10;0.10;;;5.00;1.00;;;;;;5038390;28;20410;-85
2020/12/10 05:28:50;;;;;;;0.10;0.10;;;5.10;99.90;;;;;;5043018;28;20024;-85
2020/12/10 05:31:20;;;;;;;0.10;0.10;;;5.00;99.90;;;;;;5037453;28;20034;-85
2020/12/10 05:34:04;;;;;;;0.10;0.10;;;4.90;99.90;;;;;;5044704;28;20032;-85
2020/12/10 05:36:32;;;;;;;0.10;0.10;;;4.90;99.90;;;;;;5038610;28;20036;-85
2020/12/10 05:39:11;;;;;;;0.10;0.10;;;4.90;1.00;;;;;;5026797;28;20029;-84
2020/12/10 05:41:40;;;;;;;0.10;0.10;;;4.90;99.90;;;;;;5045460;28;20110;-87
2020/12/10 05:44:20;;;;;;;0.10;0.10;;;4.90;99.90;;;;;;5026922;28;20532;-84
2020/12/10 05:46:48;;;;;;;0.20;0.20;;;4.80;99.90;;;;;;5033434;28;20037;-86
2020/12/10 05:49:16;;;;;;;0.10;0.10;;;4.90;99.90;;;;;;5051150;28;20024;-88
2020/12/10 05:51:47;;;;;;;0.10;0.10;;;4.90;99.90;;;;;;5050678;28;20486;-86
2020/12/10 05:54:15;;;;;;;0.13;0.13;;;4.90;99.90;;;;;;5023864;28;20127;-86
2020/12/10 05:56:55;;;;;;;0.17;0.17;;;4.80;99.90;;;;;;5032982;28;20032;-86
2020/12/10 05:59:24;;;;;;;0.10;0.10;;;4.80;99.90;;;;;;5032146;28;20041;-86
2020/12/10 06:01:50;;;;;;;0.20;0.20;;;4.80;99.90;;;;;;5045365;28;20172;-87
2020/12/10 06:04:16;;;;;;;0.30;0.30;;;4.60;99.90;;;;;;5053990;28;20557;-88
2020/12/10 06:06:42;;;;;;;0.10;0.10;;;4.50;99.90;;;;;;5061640;28;20131;-87
2020/12/10 06:09:08;;;;;;;0.10;0.10;;;4.50;99.70;;;;;;5051204;28;20033;-87
2020/12/10 06:11:34;;;;;;;0.15;0.15;;;4.60;99.90;;;;;;5031112;28;20549;-87
2020/12/10 06:14:04;;;;;;;0.10;0.10;;;4.50;99.90;;;;;;5056805;28;20079;-86
2020/12/10 06:16:30;;;;;;;0.40;0.40;;;4.50;34.80;;;;;;5057536;28;20065;-89
2020/12/10 06:19:01;;;;;;;0.20;0.20;;;4.50;99.90;;;;;;5041719;28;20041;-88
2020/12/10 06:21:35;;;;;;;0.10;0.10;;;4.50;99.90;;;;;;5036570;28;20070;-89
2020/12/10 06:24:24;;;;;;;0.10;0.10;;;4.60;99.90;;;;;;5051062;28;20029;-90
2020/12/10 06:26:54;;;;;;;0.10;0.10;;;4.60;99.90;;;;;;5020673;28;20083;-89
2020/12/10 06:29:30;;;;;;;0.10;0.10;;;4.60;99.90;;;;;;5049870;28;20021;-90
2020/12/10 06:32:02;;;;;;;0.10;0.10;;;4.60;99.90;;;;;;5034744;28;20075;-92
2020/12/10 06:34:37;;;;;;;0.10;0.10;;;4.50;99.90;;;;;;5041610;28;20040;-88
2020/12/10 06:37:25;;;;;;;0.30;0.30;;;4.60;99.90;;;;;;5046991;28;20033;-89
2020/12/10 06:40:00;;;;;;;0.10;0.10;;;4.60;1.00;;;;;;5051068;28;20502;-89
2020/12/10 06:42:42;;;;;;;0.10;0.10;;;4.60;99.90;;;;;;5031762;28;20103;-89
2020/12/10 06:45:31;;;;;;;0.10;0.10;;;4.60;1.00;;;;;;5032347;28;20033;-88
2020/12/10 06:47:57;;;;;;;0.10;0.10;;;4.60;1.00;;;;;;5038664;28;20479;-88
2020/12/10 06:50:27;;;;;;;0.10;0.10;;;4.60;1.00;;;;;;5050605;28;20029;-88
2020/12/10 06:53:15;;;;;;;0.10;0.10;;;4.60;1.00;;;;;;5063496;28;20028;-88
2020/12/10 06:56:07;;;;;;;0.10;0.10;;;4.60;28.60;;;;;;5059290;28;20033;-88
2020/12/10 06:58:41;;;;;;;0.10;0.10;;;4.60;66.30;;;;;;5029678;28;20021;-87
2020/12/10 07:01:24;;;;;;;0.10;0.10;;;4.60;99.90;;;;;;5049892;28;20055;-89
2020/12/10 07:03:55;;;;;;;0.10;0.10;;;4.50;99.90;;;;;;5063525;28;20071;-90
2020/12/10 07:06:23;;;;;;;0.10;0.10;;;4.60;99.90;;;;;;5023452;28;20091;-88
2020/12/10 07:09:07;;;;;;;0.20;0.20;;;4.60;99.90;;;;;;5032534;28;20749;-89
2020/12/10 07:11:38;;;;;;;0.10;0.10;;;4.60;99.90;;;;;;5036652;28;20490;-87
2020/12/10 07:14:27;;;;;;;0.10;0.10;;;4.60;99.90;;;;;;5037603;28;20029;-86
2020/12/10 07:16:53;;;;;;;0.10;0.10;;;4.60;99.90;;;;;;5046764;28;20110;-85
2020/12/10 07:19:19;;;;;;;0.10;0.10;;;4.60;99.90;;;;;;5055249;28;20029;-86
2020/12/10 07:21:50;;;;;;;0.05;0.05;;;4.60;99.90;;;;;;5032430;28;20056;-86
2020/12/10 07:24:16;;;;;;;0.10;0.10;;;4.60;99.90;;;;;;5030747;28;20029;-87
2020/12/10 07:26:42;;;;;;;0.10;0.10;;;4.60;1.00;;;;;;5037358;28;20036;-86
2020/12/10 07:29:09;;;;;;;0.10;0.10;;;4.60;1.00;;;;;;5056119;28;20062;-86
2020/12/10 07:31:35;;;;;;;0.10;0.10;;;4.60;1.00;;;;;;5049301;28;20053;-88
2020/12/10 07:34:01;;;;;;;0.10;0.10;;;4.60;1.00;;;;;;5040170;28;20051;-86
2020/12/10 07:36:30;;;;;;;0.13;0.13;;;4.70;1.00;;;;;;5053078;28;20028;-85
2020/12/10 07:38:56;;;;;;;0.10;0.10;;;4.70;14.60;;;;;;5037581;28;20028;-87
2020/12/10 07:41:21;;;;;;;0.10;0.10;;;4.80;31.50;;;;;;5041482;28;20017;-89
2020/12/10 07:43:53;;;;;;;0.10;0.10;;;4.70;70.40;;;;;;5051775;28;20108;-88
2020/12/10 07:46:19;;;;;;;0.10;0.10;;;4.70;21.30;;;;;;5025551;28;20463;-87
2020/12/10 07:48:48;;;;;;;0.38;0.38;;;4.70;39.20;;;;;;5045622;28;20107;-87
2020/12/10 07:51:22;;;;;;;7.28;3.85;;;4.70;81.80;;;;;;5048593;28;20108;-86
2020/12/10 07:53:48;;;;;;;1.95;1.85;;;4.80;99.90;;;;;;5049535;28;20032;-86
2020/12/10 07:56:30;;;;;;;0.10;0.10;;;4.80;99.90;;;;;;5049710;28;20013;-87
2020/12/10 07:59:11;;;;;;;0.10;0.10;;;4.80;99.90;;;;;;5038665;28;20026;-88
2020/12/10 08:01:43;;;;;;;0.38;0.38;;;4.80;99.90;;;;;;5031036;28;20032;-88
2020/12/10 08:04:19;;;;;;;0.10;0.10;;;4.70;94.90;;;;;;5048887;28;20052;-88
2020/12/10 08:06:48;;;;;;;0.10;0.10;;;4.70;99.90;;;;;;5036315;28;20029;-91
2020/12/10 08:09:15;;;;;;;0.63;0.57;;;4.70;99.90;;;;;;5025936;28;20744;-88
2020/12/10 08:11:49;;;;;;;0.32;0.32;;;4.80;99.90;;;;;;5024189;28;20029;-89
2020/12/10 08:14:26;;;;;;;0.10;0.10;;;4.90;99.90;;;;;;5009586;28;20396;-89
2020/12/10 08:16:53;;;;;;;0.10;0.10;;;4.90;99.90;;;;;;5049010;28;20150;-88
2020/12/10 08:19:30;;;;;;;0.10;0.10;;;4.90;99.90;;;;;;5049254;28;20029;-88
2020/12/10 08:21:56;;;;;;;0.10;0.10;;;4.90;99.90;;;;;;5057260;28;20025;-89
2020/12/10 08:24:44;;;;;;;0.10;0.10;;;4.90;99.90;;;;;;5055311;28;20036;-90
2020/12/10 08:27:16;;;;;;;0.10;0.10;;;4.90;99.90;;;;;;5031116;28;20032;-89
2020/12/10 08:30:04;;;;;;;0.10;0.10;;;5.00;1.00;;;;;;5014280;28;20048;-89
2020/12/10 08:32:30;;;;;;;0.10;0.10;;;5.00;1.00;;;;;;5035960;28;20084;-89
2020/12/10 08:35:07;;;;;;;0.88;0.88;;;5.00;1.00;;;;;;5048766;28;20028;-89
2020/12/10 08:37:41;;;;;;;0.10;0.10;;;5.10;61.10;;;;;;5035300;28;20028;-89
2020/12/10 08:40:09;;;;;;;0.10;0.10;;;5.10;99.90;;;;;;5048838;28;20494;-89
2020/12/10 08:42:35;;;;;;;0.13;0.13;;;5.10;99.90;;;;;;5030806;28;20036;-89
2020/12/10 08:45:01;;;;;;;0.10;0.10;;;5.10;99.90;;;;;;5030889;28;20029;-89
2020/12/10 08:47:30;;;;;;;0.10;0.10;;;5.40;99.90;;;;;;5048698;28;20028;-88
2020/12/10 08:50:26;;;;;;;0.10;0.10;;;5.50;99.90;;;;;;5041424;28;20454;-88
2020/12/10 08:52:58;;;;;;;0.52;0.40;;;5.50;99.90;;;;;;5017401;28;20033;-89
2020/12/10 08:55:35;;;;;;;0.13;0.13;;;5.40;99.90;;;;;;5048869;28;20490;-89
2020/12/10 08:58:01;;;;;;;0.20;0.20;;;5.30;1.00;;;;;;5030687;28;20033;-88
2020/12/10 09:00:27;;;;;;;0.10;0.10;;;5.50;1.00;;;;;;5048659;28;20037;-89
2020/12/10 09:02:53;;;;;;;0.10;0.10;;;5.60;9.00;;;;;;5048041;28;20032;-88
2020/12/10 09:05:19;;;;;;;0.10;0.10;;;5.60;53.70;;;;;;5048434;28;20019;-88
2020/12/10 09:07:45;;;;;;;0.10;0.10;;;5.70;99.90;;;;;;5033331;28;20578;-88
2020/12/10 09:10:11;;;;;;;0.00;0.00;;;5.70;99.90;;;;;;5040995;28;20025;-88
2020/12/10 09:12:36;;;;;;;0.10;0.10;;;5.60;99.90;;;;;;5030002;28;20037;-89
2020/12/10 09:15:03;;;;;;;0.10;0.10;;;5.70;99.90;;;;;;5030134;28;20099;-88
2020/12/10 09:17:28;;;;;;;0.10;0.10;;;5.90;99.90;;;;;;5061665;28;20049;-88
2020/12/10 09:19:54;;;;;;;0.43;0.43;;;5.90;99.90;;;;;;5035585;28;20039;-89
2020/12/10 09:22:20;;;;;;;0.10;0.10;;;5.90;99.90;;;;;;5037143;28;20021;-89
2020/12/10 09:24:46;;;;;;;1.20;0.75;;;5.90;99.90;;;;;;5054002;28;20033;-89
2020/12/10 09:27:17;;;;;;;0.08;0.08;;;5.90;99.90;;;;;;5030911;28;20119;-90
2020/12/10 09:29:59;;;;;;;0.10;0.10;;;6.00;99.90;;;;;;5036510;28;20039;-89
2020/12/10 09:32:25;;;;;;;0.10;0.10;;;6.10;99.90;;;;;;5034060;28;20021;-90
2020/12/10 09:34:52;;;;;;;0.10;0.10;;;6.20;99.90;;;;;;5054442;28;20050;-90
2020/12/10 09:37:20;;;;;;;0.10;0.10;;;6.40;99.90;;;;;;5054376;28;20040;-90
2020/12/10 09:39:51;;;;;;;0.10;0.10;;;6.30;99.90;;;;;;5054468;28;20033;-89
2020/12/10 09:42:50;;;;;;;0.10;0.10;;;6.30;99.90;;;;;;5040958;28;20083;-89
2020/12/10 09:45:17;;;;;;;0.88;0.40;;;6.20;99.90;;;;;;5034080;28;20150;-90
2020/12/10 09:47:48;;;;;;;0.13;0.13;;;6.10;99.90;;;;;;5036517;28;20021;-89
2020/12/10 09:50:39;;;;;;;0.10;0.10;;;6.20;99.90;;;;;;5065051;28;20047;-90
2020/12/10 09:53:26;;;;;;;0.40;0.40;;;6.50;99.90;;;;;;5057905;28;20021;-90
2020/12/10 09:58:48;;;;;;;0.20;0.20;;;6.50;99.90;;;;;;4999760;28;20041;-89
2020/12/10 10:01:14;;;;;;;0.10;0.10;;;6.60;99.90;;;;;;5012442;28;20095;-89
2020/12/10 10:03:45;;;;;;;0.57;0.57;;;6.80;99.90;;;;;;5012052;28;20061;-90
2020/12/10 10:06:12;;;;;;;0.10;0.10;;;6.70;99.90;;;;;;5011978;28;20037;-89
2020/12/10 10:08:37;;;;;;;0.10;0.10;;;6.60;99.90;;;;;;5012179;28;20125;-90
2020/12/10 10:11:04;;;;;;;0.13;0.13;;;6.90;99.90;;;;;;5011998;28;20101;-90
2020/12/10 10:13:31;;;;;;;0.10;0.10;;;6.90;99.90;;;;;;4995641;28;20077;-90
2020/12/10 10:16:02;;;;;;;0.10;0.10;;;7.00;99.90;;;;;;4994918;28;20057;-90
2020/12/10 10:18:48;;;;;;;0.47;0.47;;;7.10;99.90;;;;;;4999733;28;20573;-90
2020/12/10 10:21:18;;;;;;;0.10;0.10;;;7.60;99.90;;;;;;5011807;28;20045;-90
2020/12/10 10:23:44;;;;;;;0.10;0.10;;;7.80;99.90;;;;;;5012000;28;20026;-90
2020/12/10 10:26:10;;;;;;;0.30;0.30;;;7.80;99.90;;;;;;5011883;28;20042;-90
2020/12/10 10:28:35;;;;;;;0.63;0.63;;;7.60;99.90;;;;;;4995247;28;20060;-90
2020/12/10 10:31:01;;;;;;;0.10;0.10;;;7.40;99.90;;;;;;4993099;28;20030;-90
2020/12/10 10:33:29;;;;;;;0.08;0.08;;;7.30;99.90;;;;;;5009134;28;20030;-90
2020/12/10 10:36:15;;;;;;;0.10;0.10;;;7.30;99.90;;;;;;5048558;28;20025;-90
2020/12/10 10:38:41;;;;;;;0.28;0.28;;;7.60;99.90;;;;;;5051154;28;20025;-89
2020/12/10 10:41:06;;;;;;;0.32;0.32;;;7.90;99.90;;;;;;5032950;28;20112;-89
2020/12/10 10:43:35;;;;;;;0.10;0.10;;;7.80;99.90;;;;;;5032629;28;20078;-89
2020/12/10 10:46:01;;;;;;;0.10;0.10;;;7.50;99.90;;;;;;5033024;28;20421;-89
2020/12/10 10:48:32;;;;;;;0.10;0.10;;;7.40;99.90;;;;;;5032809;28;20033;-89
2020/12/10 10:51:19;;;;;;;0.20;0.20;;;7.60;99.90;;;;;;5012923;28;20796;-89
2020/12/10 10:53:45;;;;;;;0.30;0.30;;;7.90;99.90;;;;;;5042908;28;20119;-89
2020/12/10 10:56:10;;;;;;;0.52;0.52;;;8.00;99.90;;;;;;5036606;28;20096;-89
2020/12/10 10:58:39;;;;;;;0.10;0.10;;;8.20;99.90;;;;;;5050750;28;20037;-88
2020/12/10 11:01:04;;;;;;;0.55;0.55;;;8.60;99.90;;;;;;5016011;28;20024;-89
2020/12/10 11:03:30;;;;;;;0.85;0.63;;;8.50;99.90;;;;;;5042421;28;20407;-89
2020/12/10 11:06:22;;;;;;;4.70;1.50;;;8.00;99.90;;;;;;5040028;28;20041;-89
2020/12/10 11:08:48;;;;;;;0.10;0.10;;;8.20;99.90;;;;;;5050561;28;20068;-89
2020/12/10 11:11:18;;;;;;;0.10;0.10;;;7.90;99.90;;;;;;5032333;28;20060;-89
2020/12/10 11:13:44;;;;;;;0.20;0.20;;;7.80;99.90;;;;;;5050549;28;20025;-89
2020/12/10 11:16:10;;;;;;;0.15;0.15;;;7.70;99.90;;;;;;5032090;28;20155;-89
2020/12/10 11:18:56;;;;;;;0.13;0.13;;;7.50;99.90;;;;;;5032615;28;20107;-90
2020/12/10 11:21:26;;;;;;;0.90;0.70;;;7.40;99.90;;;;;;5032359;28;20720;-90
2020/12/10 11:23:53;;;;;;;0.10;0.10;;;7.50;99.90;;;;;;5050624;28;20025;-90
2020/12/10 11:26:26;;;;;;;0.80;0.80;;;7.60;99.90;;;;;;5065941;28;20032;-90
2020/12/10 11:28:52;;;;;;;0.25;0.25;;;7.80;99.90;;;;;;5043134;28;20539;-90
2020/12/10 11:31:18;;;;;;;0.20;0.20;;;7.90;99.90;;;;;;5031845;28;20029;-89
2020/12/10 11:33:48;;;;;;;0.10;0.10;;;8.00;99.90;;;;;;5053031;28;20021;-89
2020/12/10 11:36:13;;;;;;;0.10;0.10;;;7.90;99.90;;;;;;5039654;28;20037;-90
2020/12/10 11:38:59;;;;;;;0.10;0.10;;;8.10;99.90;;;;;;5032222;28;20456;-89
2020/12/10 11:41:25;;;;;;;0.20;0.20;;;8.10;99.90;;;;;;5021943;28;20027;-90
2020/12/10 11:44:13;;;;;;;0.30;0.30;;;8.20;99.90;;;;;;5027349;28;20862;-90
2020/12/10 11:47:11;;;;;;;0.25;0.25;;;8.20;99.90;;;;;;5031334;28;20033;-91
2020/12/10 11:49:37;;;;;;;0.10;0.10;;;8.40;99.90;;;;;;5049609;28;20452;-90
2020/12/10 11:52:02;;;;;;;0.10;0.10;;;8.60;99.90;;;;;;5041420;28;20108;-90
2020/12/10 11:54:29;;;;;;;0.10;0.10;;;8.50;99.90;;;;;;5048922;28;20469;-90
2020/12/10 11:57:22;;;;;;;0.75;0.75;;;8.40;99.90;;;;;;5061692;28;20027;-90
2020/12/10 11:59:48;;;;;;;0.10;0.10;;;8.60;99.90;;;;;;5047969;28;20402;-91
2020/12/10 12:02:14;;;;;;;0.40;0.40;;;8.40;99.90;;;;;;5031737;28;20029;-91
2020/12/10 12:04:40;;;;;;;0.30;0.30;;;8.20;99.90;;;;;;5031026;28;20060;-91
2020/12/10 12:07:06;;;;;;;0.20;0.20;;;8.10;99.90;;;;;;5031583;28;20029;-89
2020/12/10 12:09:55;;;;;;;0.10;0.10;;;8.10;99.90;;;;;;5030642;28;20461;-90
2020/12/10 12:12:22;;;;;;;0.10;0.10;;;8.00;99.90;;;;;;5061471;28;20032;-89
2020/12/10 12:14:49;;;;;;;0.88;0.85;;;8.00;99.90;;;;;;5049661;28;20032;-89
2020/12/10 12:17:14;;;;;;;0.10;0.10;;;7.80;99.90;;;;;;5031302;28;20052;-89
2020/12/10 12:19:41;;;;;;;0.20;0.20;;;7.80;99.90;;;;;;5031041;28;20449;-90
2020/12/10 12:22:07;;;;;;;0.10;0.10;;;8.10;99.90;;;;;;5058957;28;20020;-89
2020/12/10 12:24:33;;;;;;;0.40;0.40;;;8.20;99.90;;;;;;5035122;28;20044;-90
2020/12/10 12:27:03;;;;;;;0.68;0.40;;;8.50;99.90;;;;;;5049135;28;20402;-90
2020/12/10 12:29:29;;;;;;;0.85;0.85;;;8.90;99.90;;;;;;5052742;28;20021;-89
2020/12/10 12:32:06;;;;;;;0.20;0.20;;;9.20;99.90;;;;;;5049165;28;20025;-90
2020/12/10 12:34:33;;;;;;;0.10;0.10;;;9.40;99.90;;;;;;5030887;28;20413;-90
2020/12/10 12:36:59;;;;;;;0.20;0.20;;;9.50;99.90;;;;;;5030956;28;20033;-90
2020/12/10 12:39:24;;;;;;;8.03;1.40;;;9.40;99.90;;;;;;5030682;28;20060;-90
2020/12/10 12:41:50;;;;;;;0.10;0.10;;;9.40;99.90;;;;;;5048976;28;20103;-90
2020/12/10 12:44:16;;;;;;;0.10;0.10;;;9.70;99.90;;;;;;5036668;28;20955;-90
2020/12/10 12:46:58;;;;;;;2.13;1.55;;;9.60;99.90;;;;;;5056720;28;20032;-90
2020/12/10 12:49:44;;;;;;;0.10;0.10;;;9.50;99.90;;;;;;5055002;28;20028;-90
2020/12/10 12:52:32;;;;;;;0.10;0.10;;;9.60;99.90;;;;;;5051380;28;20032;-90
2020/12/10 12:54:58;;;;;;;0.35;0.35;;;9.80;99.90;;;;;;5068054;28;20504;-90
2020/12/10 12:57:25;;;;;;;3.38;0.90;;;10.10;99.90;;;;;;5034275;28;20021;-90
2020/12/10 13:00:07;;;;;;;0.20;0.20;;;10.30;99.90;;;;;;5038492;28;20041;-90
2020/12/10 13:02:37;;;;;;;0.60;0.50;;;10.30;99.90;;;;;;5026566;28;20040;-90
2020/12/10 13:05:05;;;;;;;0.40;0.40;;;9.90;99.90;;;;;;5030296;28;20033;-89
2020/12/10 13:07:31;;;;;;;0.10;0.10;;;9.90;99.90;;;;;;5062167;28;20036;-90
2020/12/10 13:10:21;;;;;;;0.60;0.60;;;10.00;99.90;;;;;;5056018;28;20032;-90
2020/12/10 13:12:47;;;;;;;0.20;0.20;;;10.10;99.90;;;;;;5030687;28;20040;-89